Peanut, California
Current Conditions -  °F | °C
As of 2:55 PM on Tuesday 21 Oct 2014 (Local Time) from KO54 Reporting Station
Clear Clear  
Wind Chill: 57°   Ceiling: Unl
Heat Index: 57°   Visibility: 2mi
Dew Point: 41°   Wind: 3mph
Humidity: 55%   Direction: 240°WSW
Pressure: 30.07"   Gusts: NA
Location:  40.5348°N, 123.175°W
Report Text: KO54 212155Z AUTO 24003KT 2SM CLR 14/05 A3007 RMK AO1
Loading
Personal Weather Stations






























Interactive Weather Map
Tropical Storm Tracking
New forecast layout! Learn more

10-Day Weather Forecast

Advertisements
Track Severe Weather on mobile